Terminal Aerodrome Forecast
Issued by NWS

Home | Current Version | Previous Version | Text Only | Print | Product List | Glossary On
Versions: 1 2 3 4 5 6 7 8 9 10 11 12 13
949
FTUS46 KMFR 251735
TAFRBG
TAF
KRBG 251735Z 2518/2618 34004KT P6SM OVC025
     FM252200 36008KT P6SM BKN035
     FM260400 36004KT P6SM OVC025=

USA.gov is the U.S. government's official web portal to all federal, state and local government web resources and services.